Washington, NC

3:47 PM EST en Febrero 28, 2015 (GMT -0500)
Swan Point | Change Station
CLOSE
Current Station
Estación meteorológica personal
Location: Washington, NC
Altura: 30 ft
Estaciones meteorológicas cercanas

Alt 30 ft 35.48 °N, 76.97 °W | Updated 10 seconds ago

Clear
Despejado
39.0 ° F
Sensación térmica 39 ° F
N
2.0
Viento Variable Viento desde Este
Gusts 7.0 mph

Hoy
Alta -- | Baja -- ° F
--% Posibilidad de precipitaciones
Ayer
Alta -- | Baja -- ° F
Precip. -- pul
6:39 AM 6:02 PM
Gibosa creciente, 80% visible
Presión 30.71 pul
Visibilidad 10.0 Millas
Nubes Despejado
Vientos helados 39 ° F
Punto de rocío 20 ° F
Humedad 46%
Precipitaciones 0.00 pul
Espesor de la nieve No disponible.
UV 2 de una escala de 12
Polen 7.60 de una escala de 12
Calidad del aire No disponible.
Flu Activity No disponible.
METAR KOCW 282035Z AUTO 02008G14KT 10SM CLR 03/M08 A3071 RMK AO2 T00341080

More Conditions Fewer Conditions

Presión 30.71 pul
Visibilidad 10.0 Millas
Nubes Despejado
Vientos helados 39 ° F
Punto de rocío 20 ° F
Humedad 46%
Precipitaciones 0.00 pul
Espesor de la nieve No disponible.
UV 2 de una escala de 12
Polen 7.60 de una escala de 12
Calidad del aire No disponible.
Flu Activity No disponible.
METAR KOCW 282035Z AUTO 02008G14KT 10SM CLR 03/M08 A3071 RMK AO2 T00341080

More Conditions Fewer Conditions

10-Day Weather Forecast

Almanac

Astronomía

Feb. 28, 2015 Salida Puesta
Hora real
Crepúsculo civil
Crepúsculo náutico
Crepúsculo astronómico
Luna
Horas de luz
Horas de luz
Tomorrow will be .
, % of the Moon is Illuminated

Extremos de hoy

Máximos del estado Bajos del estado

Community

WunderPhotos

Upload Photos

1,801,145 ¡fotos cargadas!

WunderBlogs® & News

Nearby

Calidad del aire

  Calidad del aire Índice AQ Contaminante
Not available.

Grosos de nieve

Estación Profundido Altura

Actividad de terremotos

Ciudad Distance Mag. Tiempo y dato
Magnitud mínima muestra es 2,5.

Temperaturas de aguas costeras

Lugar Temperatura

Estaciones meteorológicas cercanas